Ducos, Argentina
Current Conditions -  °F | °C
As of 6:00 PM on Thursday 23 Oct 2014 (Local Time) from SAZM Reporting Station
Light Rain Light Rain  
Wind Chill: 14°   Ceiling: 6000
Heat Index: 14°   Visibility: 6mi
Dew Point: 12°   Wind: 7mph
Humidity: 88%   Direction: 110°ESE
Pressure: 30.06"   Gusts: NA
Location:  37.47°S, 62.42°W
Report Text: SAZM 232100Z 11006KT 9000 -RA BKN060 BKN200 14/12 Q1018
Loading
Personal Weather Stations






























Interactive Weather Map
Tropical Storm Tracking
New forecast layout! Learn more

10-Day Weather Forecast

Advertisements
Track Severe Weather on mobile